Terminal Aerodrome Forecast
Issued by NWS

Home | Current Version | Previous Version | Text Only | Print | Product List | Glossary On
Versions: 1 2 3 4 5 6 7 8 9 10 11 12
000
FTUS42 KTBW 172320
TAFLAL
TAF
KLAL 172320Z 1800/1824 33012KT P6SM BKN040
     FM180100 33009KT P6SM SCT020
     FM180700 36006KT P6SM SKC=

USA.gov is the U.S. government's official web portal to all federal, state and local government web resources and services.